Time;durP1;ratioP1;P1;durP2;ratioP2;P2;SDS_P1;SDS_P2;PMS_P1;PMS_P2;Temp;Humidity;BMP_temperature;BMP_pressure;BME280_temperature;BME280_humidity;BME280_pressure;Samples;Min_cycle;Max_cycle;Signal;HPM_P1;HPM_P2
2021/08/08 00:02:12;;;;;;;1.02;0.40;;;17.00;92.50;;;;;;5013835;28;20061;-83
2021/08/08 00:04:37;;;;;;;1.20;0.30;;;16.90;92.70;;;;;;5012676;28;20030;-83
2021/08/08 00:07:03;;;;;;;1.65;0.50;;;16.90;92.80;;;;;;5029775;28;20387;-84
2021/08/08 00:09:29;;;;;;;1.52;0.30;;;16.90;92.80;;;;;;5012547;28;20030;-85
2021/08/08 00:11:55;;;;;;;0.28;0.28;;;17.00;92.90;;;;;;5013199;28;20022;-84
2021/08/08 00:14:21;;;;;;;1.42;0.30;;;16.90;92.90;;;;;;5012919;28;20029;-85
2021/08/08 00:16:47;;;;;;;0.80;0.20;;;16.90;93.00;;;;;;5012715;28;20117;-85
2021/08/08 00:19:13;;;;;;;0.60;0.30;;;16.90;93.20;;;;;;5012933;28;20029;-86
2021/08/08 00:21:41;;;;;;;0.40;0.30;;;16.90;93.30;;;;;;5012600;28;20448;-86
2021/08/08 00:24:07;;;;;;;1.35;0.50;;;16.90;93.20;;;;;;5013147;28;20026;-85
2021/08/08 00:26:33;;;;;;;1.40;0.40;;;16.90;93.20;;;;;;5014344;28;20036;-85
2021/08/08 00:28:59;;;;;;;1.38;0.40;;;16.90;93.30;;;;;;5016798;28;20037;-85
2021/08/08 00:31:25;;;;;;;2.95;0.63;;;16.90;93.40;;;;;;5016982;28;20093;-84
2021/08/08 00:33:51;;;;;;;1.02;0.50;;;16.80;93.50;;;;;;5015730;28;20450;-85
2021/08/08 00:36:18;;;;;;;0.38;0.30;;;16.90;93.60;;;;;;5014546;28;20060;-85
2021/08/08 00:38:44;;;;;;;3.45;0.43;;;16.80;93.60;;;;;;5012471;28;20056;-85
2021/08/08 00:41:10;;;;;;;1.90;0.50;;;16.90;93.70;;;;;;5012665;28;20549;-84
2021/08/08 00:43:35;;;;;;;0.82;0.30;;;16.90;93.70;;;;;;5012455;28;20120;-84
2021/08/08 00:46:01;;;;;;;1.10;0.45;;;16.80;94.00;;;;;;5013869;28;20040;-85
2021/08/08 00:48:27;;;;;;;2.08;0.50;;;16.90;93.90;;;;;;5014475;28;20502;-85
2021/08/08 00:50:53;;;;;;;1.02;0.50;;;16.80;93.90;;;;;;5012326;28;20041;-84
2021/08/08 00:53:19;;;;;;;0.70;0.40;;;16.80;93.90;;;;;;5013211;28;20029;-85
2021/08/08 00:55:44;;;;;;;1.33;0.22;;;16.80;93.90;;;;;;5015604;28;20034;-84
2021/08/08 00:58:10;;;;;;;1.67;0.50;;;16.80;94.00;;;;;;5016975;28;20549;-85
2021/08/08 01:00:37;;;;;;;0.70;0.40;;;16.80;94.00;;;;;;5015556;28;20486;-85
2021/08/08 01:03:07;;;;;;;1.50;0.50;;;16.70;94.10;;;;;;5015935;28;20030;-83
2021/08/08 01:05:39;;;;;;;1.27;0.40;;;16.70;94.20;;;;;;5015415;28;20037;-85
2021/08/08 01:08:05;;;;;;;;;;;16.70;94.20;;;;;;5016429;28;20029;-84
2021/08/08 01:10:35;;;;;;;0.60;0.50;;;16.70;94.30;;;;;;5015470;28;19909;-87
2021/08/08 01:13:02;;;;;;;2.40;0.30;;;16.60;94.20;;;;;;5015889;28;20390;-86
2021/08/08 01:15:29;;;;;;;1.35;0.30;;;16.60;94.20;;;;;;5015472;28;20539;-86
2021/08/08 01:17:57;;;;;;;0.75;0.20;;;16.60;94.20;;;;;;5015107;28;20054;-86
2021/08/08 01:20:26;;;;;;;0.70;0.40;;;16.60;94.10;;;;;;5015757;28;20022;-86
2021/08/08 01:22:54;;;;;;;2.50;0.40;;;16.70;94.10;;;;;;5015047;28;20029;-86
2021/08/08 01:25:22;;;;;;;1.23;0.40;;;16.60;94.10;;;;;;5015670;28;20382;-86
2021/08/08 01:27:51;;;;;;;0.70;0.50;;;16.70;94.10;;;;;;5015211;28;20097;-86
2021/08/08 01:30:16;;;;;;;1.40;0.40;;;16.70;94.00;;;;;;5015460;28;20025;-86
2021/08/08 01:32:43;;;;;;;1.40;0.47;;;16.70;93.90;;;;;;5014939;28;20026;-86
2021/08/08 01:35:09;;;;;;;1.10;0.43;;;16.70;93.90;;;;;;5015046;28;20487;-87
2021/08/08 01:37:35;;;;;;;1.75;0.57;;;16.70;93.90;;;;;;5014568;28;20064;-87
2021/08/08 01:40:24;;;;;;;1.90;0.30;;;16.70;93.80;;;;;;5015221;28;20109;-86
2021/08/08 01:42:54;;;;;;;0.57;0.30;;;16.70;94.10;;;;;;5014982;28;20026;-86
2021/08/08 01:45:21;;;;;;;2.42;0.50;;;16.60;93.70;;;;;;5016106;28;20061;-82
2021/08/08 01:47:53;;;;;;;0.32;0.22;;;16.70;93.70;;;;;;5014467;28;20033;-82
2021/08/08 01:50:20;;;;;;;0.77;0.40;;;16.70;93.60;;;;;;5015048;28;20121;-82
2021/08/08 01:52:46;;;;;;;0.40;0.30;;;16.70;93.60;;;;;;5014363;28;20029;-82
2021/08/08 01:55:14;;;;;;;2.35;0.43;;;16.70;93.50;;;;;;5014729;28;20026;-82
2021/08/08 01:57:40;;;;;;;1.25;0.32;;;16.70;93.50;;;;;;5014373;28;20030;-83
2021/08/08 02:00:07;;;;;;;1.88;0.30;;;16.70;93.50;;;;;;5031055;28;20108;-82
2021/08/08 02:02:33;;;;;;;0.85;0.32;;;16.70;93.50;;;;;;5014657;28;20026;-82
2021/08/08 02:04:58;;;;;;;0.40;0.40;;;16.70;93.60;;;;;;5014278;28;20030;-83
2021/08/08 02:07:24;;;;;;;1.35;0.40;;;16.70;93.60;;;;;;5014663;28;20034;-84
2021/08/08 02:09:50;;;;;;;4.10;0.43;;;16.70;93.60;;;;;;5014469;28;20030;-84
2021/08/08 02:12:15;;;;;;;3.00;0.50;;;16.70;93.70;;;;;;5014738;28;20029;-84
2021/08/08 02:14:41;;;;;;;0.63;0.40;;;16.70;93.80;;;;;;5014804;28;20033;-84
2021/08/08 02:17:07;;;;;;;1.45;0.40;;;16.70;93.80;;;;;;5014411;28;20170;-84
2021/08/08 02:19:33;;;;;;;1.83;0.60;;;16.70;93.90;;;;;;5014436;28;20475;-84
2021/08/08 02:22:00;;;;;;;1.27;0.45;;;16.60;93.90;;;;;;5013988;28;20080;-84
2021/08/08 02:24:26;;;;;;;1.80;0.40;;;16.60;93.90;;;;;;5014316;28;20030;-84
2021/08/08 02:26:52;;;;;;;1.17;0.30;;;16.70;94.00;;;;;;5013863;28;20431;-84
2021/08/08 02:29:17;;;;;;;1.73;0.50;;;16.60;94.00;;;;;;5014471;28;20422;-84
2021/08/08 02:31:44;;;;;;;3.95;0.60;;;16.70;94.10;;;;;;5014064;28;20057;-85
2021/08/08 02:34:13;;;;;;;2.40;0.50;;;16.60;94.10;;;;;;5015455;28;20490;-85
2021/08/08 02:36:39;;;;;;;1.50;0.50;;;16.70;94.10;;;;;;5014461;28;20050;-85
2021/08/08 02:39:05;;;;;;;1.27;0.50;;;16.60;94.10;;;;;;5013873;28;20050;-84
2021/08/08 02:41:31;;;;;;;3.05;0.60;;;16.60;94.20;;;;;;5013947;28;20065;-84
2021/08/08 02:43:56;;;;;;;1.88;0.50;;;16.60;94.30;;;;;;5013563;28;20210;-85
2021/08/08 02:46:23;;;;;;;1.15;0.60;;;16.60;94.20;;;;;;5014238;28;20525;-85
2021/08/08 02:48:49;;;;;;;0.70;0.60;;;16.60;94.20;;;;;;5013422;28;20030;-84
2021/08/08 02:51:17;;;;;;;0.88;0.52;;;16.60;94.20;;;;;;5013945;28;20164;-84
2021/08/08 02:53:43;;;;;;;1.08;0.50;;;16.60;94.10;;;;;;5013791;28;20032;-85
2021/08/08 02:56:09;;;;;;;1.67;0.43;;;16.60;94.20;;;;;;5030222;28;20061;-85
2021/08/08 02:58:34;;;;;;;2.85;0.40;;;16.60;94.10;;;;;;5014945;28;20044;-85
2021/08/08 03:01:00;;;;;;;0.98;0.47;;;16.60;94.10;;;;;;5013298;28;20132;-85
2021/08/08 03:03:26;;;;;;;1.00;0.35;;;16.60;94.20;;;;;;5013579;28;20124;-85
2021/08/08 03:05:51;;;;;;;1.02;0.40;;;16.60;94.10;;;;;;5013139;28;20037;-86
2021/08/08 03:08:17;;;;;;;2.22;0.60;;;16.60;94.10;;;;;;5013570;28;20413;-87
2021/08/08 03:10:42;;;;;;;1.30;0.60;;;16.60;94.10;;;;;;5013208;28;20026;-87
2021/08/08 03:13:08;;;;;;;1.20;0.43;;;16.50;94.00;;;;;;5013991;28;20083;-87
2021/08/08 03:15:34;;;;;;;3.33;0.73;;;16.60;94.00;;;;;;5014082;28;20030;-87
2021/08/08 03:17:59;;;;;;;0.40;0.40;;;16.60;93.90;;;;;;5012854;28;20616;-87
2021/08/08 03:20:25;;;;;;;0.88;0.60;;;16.60;93.90;;;;;;5013451;28;20026;-83
2021/08/08 03:22:51;;;;;;;1.25;0.60;;;16.60;93.90;;;;;;5014109;28;20033;-83
2021/08/08 03:25:17;;;;;;;1.95;0.50;;;16.60;93.90;;;;;;5013362;28;20481;-82
2021/08/08 03:27:42;;;;;;;1.88;0.60;;;16.60;93.90;;;;;;5013074;28;20513;-83
2021/08/08 03:30:09;;;;;;;1.30;0.50;;;16.60;93.80;;;;;;5012559;28;20072;-82
2021/08/08 03:32:36;;;;;;;0.90;0.50;;;16.60;93.80;;;;;;5013167;28;20033;-82
2021/08/08 03:35:02;;;;;;;2.60;0.80;;;16.50;93.80;;;;;;5012545;28;20040;-83
2021/08/08 03:37:27;;;;;;;1.88;0.68;;;16.50;93.80;;;;;;5013263;28;20054;-82
2021/08/08 03:39:53;;;;;;;1.52;0.65;;;16.50;93.80;;;;;;5013676;28;20049;-83
2021/08/08 03:42:19;;;;;;;2.25;0.45;;;16.50;93.80;;;;;;5013271;28;20463;-83
2021/08/08 03:44:44;;;;;;;1.55;0.52;;;16.50;93.80;;;;;;5013625;28;20100;-83
2021/08/08 03:47:10;;;;;;;2.10;0.98;;;16.50;93.90;;;;;;5012761;28;20168;-82
2021/08/08 03:49:35;;;;;;;2.35;0.60;;;16.50;93.80;;;;;;5014185;28;20021;-83
2021/08/08 03:52:02;;;;;;;2.28;0.50;;;16.50;93.90;;;;;;5012514;28;20034;-82
2021/08/08 03:54:27;;;;;;;1.42;0.60;;;16.50;93.90;;;;;;5013938;28;20033;-82
2021/08/08 03:56:53;;;;;;;2.53;0.50;;;16.50;93.90;;;;;;5012766;28;20402;-83
2021/08/08 03:59:19;;;;;;;2.75;0.55;;;16.50;93.80;;;;;;5014173;28;20391;-85
2021/08/08 04:01:45;;;;;;;0.93;0.50;;;16.50;93.80;;;;;;5012534;28;20022;-86
2021/08/08 04:04:11;;;;;;;1.50;0.43;;;16.50;93.80;;;;;;5013269;28;20041;-86
2021/08/08 04:06:36;;;;;;;4.75;0.40;;;16.50;93.80;;;;;;5013056;28;20070;-85
2021/08/08 04:09:02;;;;;;;2.45;0.52;;;16.60;93.80;;;;;;5012556;28;20505;-85
2021/08/08 04:11:28;;;;;;;3.05;0.65;;;16.60;93.80;;;;;;5012849;28;20026;-86
2021/08/08 04:13:54;;;;;;;0.63;0.30;;;16.60;93.80;;;;;;5012489;28;20109;-84
2021/08/08 04:16:19;;;;;;;2.20;0.52;;;16.60;93.80;;;;;;5013094;28;20026;-82
2021/08/08 04:18:45;;;;;;;1.45;0.60;;;16.60;93.80;;;;;;5012641;28;20435;-84
2021/08/08 04:21:11;;;;;;;1.65;0.50;;;16.60;93.60;;;;;;5012787;28;20049;-84
2021/08/08 04:23:37;;;;;;;4.82;0.55;;;16.60;93.60;;;;;;5012708;28;20022;-83
2021/08/08 04:26:02;;;;;;;2.05;0.40;;;16.70;93.60;;;;;;5012320;28;20037;-83
2021/08/08 04:28:28;;;;;;;2.85;0.50;;;16.60;93.50;;;;;;5015401;28;20113;-84
2021/08/08 04:30:54;;;;;;;3.28;0.60;;;16.70;93.50;;;;;;5017012;28;20022;-84
2021/08/08 04:33:19;;;;;;;1.27;0.40;;;16.70;93.40;;;;;;5016511;28;20030;-84
2021/08/08 04:35:45;;;;;;;1.70;0.30;;;16.70;93.40;;;;;;5016253;28;20059;-84
2021/08/08 04:38:11;;;;;;;3.65;0.47;;;16.70;93.30;;;;;;5016050;28;20522;-84
2021/08/08 04:40:36;;;;;;;1.23;0.40;;;16.70;93.20;;;;;;5016330;28;20080;-83
2021/08/08 04:43:04;;;;;;;3.20;0.68;;;16.70;93.10;;;;;;5015972;28;20026;-83
2021/08/08 04:45:30;;;;;;;0.68;0.40;;;16.70;93.10;;;;;;5016172;28;20249;-85
2021/08/08 04:47:55;;;;;;;0.93;0.47;;;16.70;92.90;;;;;;5015914;28;20034;-85
2021/08/08 04:50:21;;;;;;;0.80;0.40;;;16.70;92.90;;;;;;5017237;28;20026;-84
2021/08/08 04:52:48;;;;;;;1.42;0.50;;;16.70;92.90;;;;;;5015536;28;20117;-85
2021/08/08 04:55:14;;;;;;;3.17;0.50;;;16.70;92.90;;;;;;5017201;28;20026;-86
2021/08/08 04:57:40;;;;;;;0.68;0.40;;;16.70;93.00;;;;;;5016235;28;20030;-85
2021/08/08 05:00:08;;;;;;;0.82;0.40;;;16.70;92.70;;;;;;5016859;28;20026;-85
2021/08/08 05:02:35;;;;;;;3.08;0.50;;;16.80;92.60;;;;;;5015960;28;20181;-85
2021/08/08 05:05:04;;;;;;;1.95;0.57;;;16.80;92.50;;;;;;5015528;28;20038;-85
2021/08/08 05:07:30;;;;;;;2.10;0.52;;;16.80;92.50;;;;;;5015851;28;20061;-85
2021/08/08 05:09:55;;;;;;;1.77;0.47;;;16.90;92.70;;;;;;5016570;28;20387;-85
2021/08/08 05:12:21;;;;;;;3.08;0.80;;;16.90;92.40;;;;;;5032357;28;20510;-84
2021/08/08 05:14:46;;;;;;;0.80;0.40;;;16.90;92.20;;;;;;5015112;28;20030;-84
2021/08/08 05:17:12;;;;;;;3.33;0.40;;;16.90;92.20;;;;;;5015993;28;20475;-83
2021/08/08 05:19:37;;;;;;;1.50;0.40;;;16.90;92.30;;;;;;5015751;28;20080;-85
2021/08/08 05:22:03;;;;;;;3.30;0.50;;;16.90;92.10;;;;;;5016151;28;20038;-86
2021/08/08 05:24:29;;;;;;;2.60;0.43;;;16.90;92.20;;;;;;5015413;28;20026;-85
2021/08/08 05:26:56;;;;;;;1.65;0.50;;;16.90;92.20;;;;;;5015165;28;20360;-87
2021/08/08 05:29:24;;;;;;;2.67;0.40;;;16.90;92.10;;;;;;5015573;28;20038;-83
2021/08/08 05:31:50;;;;;;;1.55;0.60;;;17.00;92.10;;;;;;5015004;28;20026;-84
2021/08/08 05:34:16;;;;;;;2.28;0.47;;;17.00;92.00;;;;;;5015474;28;20026;-83
2021/08/08 05:36:42;;;;;;;2.58;0.50;;;17.10;92.10;;;;;;5015015;28;20049;-83
2021/08/08 05:39:08;;;;;;;2.70;0.98;;;17.10;91.90;;;;;;5014153;28;20483;-83
2021/08/08 05:41:33;;;;;;;4.78;0.50;;;17.10;91.80;;;;;;5016314;28;20022;-83
2021/08/08 05:43:59;;;;;;;1.50;0.43;;;17.20;91.70;;;;;;5014660;28;20041;-83
2021/08/08 05:46:24;;;;;;;2.10;0.43;;;17.20;91.50;;;;;;5031450;28;20037;-83
2021/08/08 05:48:50;;;;;;;0.90;0.60;;;17.30;91.40;;;;;;5014883;28;20037;-84
2021/08/08 05:51:16;;;;;;;3.58;0.40;;;17.30;91.40;;;;;;5014873;28;20460;-83
2021/08/08 05:53:41;;;;;;;0.73;0.45;;;17.40;91.40;;;;;;5015908;28;20033;-83
2021/08/08 05:56:07;;;;;;;2.13;0.38;;;17.40;91.20;;;;;;5015425;28;20085;-80
2021/08/08 05:58:32;;;;;;;4.03;0.68;;;17.40;91.20;;;;;;5015036;28;20467;-83
2021/08/08 06:00:58;;;;;;;1.50;0.50;;;17.40;91.20;;;;;;5015442;28;20025;-83
2021/08/08 06:03:23;;;;;;;1.42;0.40;;;17.40;91.10;;;;;;5015001;28;20037;-86
2021/08/08 06:05:49;;;;;;;0.98;0.50;;;17.40;91.40;;;;;;5014305;28;20103;-86
2021/08/08 06:08:15;;;;;;;1.42;0.50;;;17.50;91.20;;;;;;5015150;28;20026;-85
2021/08/08 06:10:41;;;;;;;3.75;0.85;;;17.50;91.00;;;;;;5014915;28;20030;-85
2021/08/08 06:13:06;;;;;;;0.80;0.32;;;17.50;91.00;;;;;;5013996;28;20025;-84
2021/08/08 06:15:32;;;;;;;4.32;0.82;;;17.50;91.00;;;;;;5014448;28;20045;-84
2021/08/08 06:17:58;;;;;;;1.30;0.38;;;17.50;91.40;;;;;;5015232;28;20026;-85
2021/08/08 06:20:24;;;;;;;3.42;0.57;;;17.50;91.10;;;;;;5014716;28;20022;-84
2021/08/08 06:22:50;;;;;;;1.33;0.50;;;17.40;91.20;;;;;;5014162;28;20026;-88
2021/08/08 06:25:16;;;;;;;1.60;0.60;;;17.40;91.40;;;;;;5014243;28;20109;-85
2021/08/08 06:27:41;;;;;;;2.83;0.30;;;17.40;91.30;;;;;;5014202;28;20038;-85
2021/08/08 06:30:08;;;;;;;1.52;0.40;;;17.40;91.40;;;;;;5013939;28;20022;-85
2021/08/08 06:32:34;;;;;;;0.85;0.32;;;17.40;91.30;;;;;;5014673;28;20026;-85
2021/08/08 06:34:59;;;;;;;1.90;0.70;;;17.40;91.40;;;;;;5013832;28;20030;-86
2021/08/08 06:37:25;;;;;;;1.95;0.50;;;17.30;91.50;;;;;;5014074;28;20049;-85
2021/08/08 06:39:51;;;;;;;3.67;0.60;;;17.30;91.60;;;;;;5013847;28;20033;-87
2021/08/08 06:42:16;;;;;;;1.05;0.40;;;17.30;91.60;;;;;;5014194;28;20076;-85
2021/08/08 06:44:42;;;;;;;2.33;0.40;;;17.40;91.70;;;;;;5013960;28;20030;-85
2021/08/08 06:47:07;;;;;;;3.42;0.80;;;17.40;91.70;;;;;;5013543;28;20064;-85
2021/08/08 06:49:33;;;;;;;1.80;0.40;;;17.40;91.80;;;;;;5014006;28;20030;-85
2021/08/08 06:51:59;;;;;;;1.15;0.50;;;17.50;91.60;;;;;;5014498;28;20021;-84
2021/08/08 06:54:25;;;;;;;1.00;0.60;;;17.50;91.50;;;;;;5013852;28;20167;-83
2021/08/08 06:56:51;;;;;;;3.45;0.50;;;17.50;91.60;;;;;;5014897;28;20096;-84
2021/08/08 06:59:17;;;;;;;4.40;0.52;;;17.50;91.80;;;;;;5013968;28;20048;-83
2021/08/08 07:01:42;;;;;;;2.35;0.47;;;17.40;91.40;;;;;;5013986;28;20446;-83
2021/08/08 07:04:08;;;;;;;1.73;0.35;;;17.50;91.60;;;;;;5013399;28;20169;-84
2021/08/08 07:06:33;;;;;;;2.42;0.52;;;17.50;91.30;;;;;;5013591;28;20045;-83
2021/08/08 07:08:59;;;;;;;1.52;0.75;;;17.50;91.10;;;;;;5029515;28;20037;-83
2021/08/08 07:11:26;;;;;;;3.97;0.60;;;17.60;91.20;;;;;;5014858;28;20037;-82
2021/08/08 07:13:52;;;;;;;3.28;0.60;;;17.70;90.80;;;;;;5014090;28;20112;-83
2021/08/08 07:16:18;;;;;;;4.15;0.80;;;17.70;90.70;;;;;;5013982;28;20026;-83
2021/08/08 07:18:44;;;;;;;2.25;0.60;;;17.90;90.40;;;;;;5013910;28;20022;-82
2021/08/08 07:21:10;;;;;;;1.77;0.52;;;18.00;90.40;;;;;;5013083;28;20032;-83
2021/08/08 07:23:35;;;;;;;1.42;0.90;;;18.00;89.80;;;;;;5014623;28;20029;-83
2021/08/08 07:26:01;;;;;;;2.47;0.70;;;18.00;89.20;;;;;;5013087;28;20101;-83
2021/08/08 07:28:27;;;;;;;1.85;0.98;;;18.00;89.30;;;;;;5014877;28;20497;-83
2021/08/08 07:30:53;;;;;;;2.70;0.90;;;18.00;88.70;;;;;;5014205;28;20030;-84
2021/08/08 07:33:19;;;;;;;2.50;1.02;;;18.00;88.90;;;;;;5014229;28;20096;-83
2021/08/08 07:35:45;;;;;;;3.35;0.80;;;18.00;88.70;;;;;;5013282;28;20041;-82
2021/08/08 07:38:11;;;;;;;5.88;1.00;;;17.90;87.40;;;;;;5012416;28;20050;-82
2021/08/08 07:40:37;;;;;;;3.67;0.75;;;18.00;86.90;;;;;;5013312;28;20096;-82
2021/08/08 07:43:03;;;;;;;3.67;1.30;;;18.00;86.50;;;;;;5012492;28;20100;-83
2021/08/08 07:45:29;;;;;;;3.08;1.02;;;18.00;86.00;;;;;;5014025;28;20040;-82
2021/08/08 07:47:55;;;;;;;3.17;1.00;;;18.10;85.70;;;;;;5012833;28;20030;-87
2021/08/08 07:50:20;;;;;;;3.58;0.80;;;18.20;85.00;;;;;;5013184;28;20037;-86
2021/08/08 07:52:46;;;;;;;2.25;0.80;;;18.30;83.90;;;;;;5013072;28;20468;-85
2021/08/08 07:55:12;;;;;;;6.18;0.98;;;18.40;84.60;;;;;;5012476;28;20026;-84
2021/08/08 07:57:37;;;;;;;4.40;1.00;;;18.40;85.00;;;;;;5013071;28;20037;-85
2021/08/08 08:00:05;;;;;;;6.97;1.10;;;18.40;84.00;;;;;;5012371;28;20135;-85
2021/08/08 08:02:31;;;;;;;2.28;0.80;;;18.40;84.00;;;;;;5010732;28;20160;-83
2021/08/08 08:04:57;;;;;;;2.30;0.77;;;18.50;83.80;;;;;;5016087;28;20064;-85
2021/08/08 08:07:22;;;;;;;1.55;0.70;;;18.50;84.20;;;;;;5017732;28;20042;-84
2021/08/08 08:09:48;;;;;;;3.63;0.70;;;18.60;83.60;;;;;;5016380;28;20033;-83
2021/08/08 08:12:14;;;;;;;4.03;1.10;;;18.60;82.70;;;;;;5016057;28;20022;-83
2021/08/08 08:14:39;;;;;;;1.90;1.00;;;18.70;83.40;;;;;;5016206;28;20018;-85
2021/08/08 08:17:05;;;;;;;3.95;0.88;;;18.70;82.40;;;;;;5015863;28;20030;-86
2021/08/08 08:19:31;;;;;;;3.97;0.90;;;18.70;82.60;;;;;;5016186;28;20034;-87
2021/08/08 08:21:59;;;;;;;4.25;1.10;;;18.80;83.00;;;;;;5015854;28;20029;-88
2021/08/08 08:24:24;;;;;;;3.13;0.98;;;18.80;82.70;;;;;;5016412;28;20498;-89
2021/08/08 08:26:50;;;;;;;2.22;1.05;;;18.80;82.70;;;;;;5015747;28;20033;-89
2021/08/08 08:29:16;;;;;;;7.60;1.63;;;18.80;84.10;;;;;;5015795;28;20200;-86
2021/08/08 08:31:41;;;;;;;1.33;0.80;;;18.70;83.80;;;;;;5015804;28;20100;-87
2021/08/08 08:34:09;;;;;;;4.65;0.90;;;18.70;84.50;;;;;;5015453;28;20018;-88
2021/08/08 08:36:35;;;;;;;5.10;1.20;;;18.70;85.70;;;;;;5015601;28;20046;-86
2021/08/08 08:39:01;;;;;;;3.30;1.40;;;18.60;87.00;;;;;;5015027;28;20160;-86
2021/08/08 08:41:30;;;;;;;4.90;1.30;;;18.40;86.90;;;;;;5017063;28;20113;-82
2021/08/08 08:43:58;;;;;;;3.45;1.10;;;18.40;89.20;;;;;;5011564;28;20030;-83
2021/08/08 08:46:24;;;;;;;5.28;1.77;;;18.30;90.10;;;;;;5011341;28;20045;-86
2021/08/08 08:48:54;;;;;;;5.28;1.27;;;18.30;90.30;;;;;;5014063;28;20490;-82
2021/08/08 08:51:30;;;;;;;6.55;0.95;;;18.40;90.40;;;;;;5012503;28;20030;-82
2021/08/08 08:53:57;;;;;;;3.38;0.98;;;18.50;90.70;;;;;;5007305;28;20034;-81
2021/08/08 08:56:23;;;;;;;6.70;1.30;;;18.50;90.70;;;;;;4999193;28;20037;-81
2021/08/08 08:58:49;;;;;;;5.38;1.25;;;18.60;91.00;;;;;;5014452;28;20112;-80
2021/08/08 09:01:15;;;;;;;3.22;1.10;;;18.60;91.50;;;;;;5014355;28;20030;-87
2021/08/08 09:03:44;;;;;;;2.83;1.08;;;18.70;91.50;;;;;;5014746;28;20033;-88
2021/08/08 09:06:11;;;;;;;3.80;1.10;;;18.70;91.40;;;;;;5014547;28;20037;-88
2021/08/08 09:08:37;;;;;;;1.70;1.00;;;18.80;91.20;;;;;;5015321;28;20471;-87
2021/08/08 09:11:05;;;;;;;5.35;1.02;;;18.90;91.10;;;;;;5014262;28;20032;-81
2021/08/08 09:13:31;;;;;;;4.13;1.25;;;18.90;90.70;;;;;;5012235;28;20107;-81
2021/08/08 09:15:57;;;;;;;4.75;1.70;;;19.00;90.60;;;;;;5013770;28;20084;-81
2021/08/08 09:18:23;;;;;;;6.00;1.08;;;19.00;90.30;;;;;;5015039;28;20043;-80
2021/08/08 09:20:50;;;;;;;4.40;1.00;;;19.10;90.60;;;;;;5014137;28;20037;-80
2021/08/08 09:23:17;;;;;;;1.98;1.05;;;19.10;89.50;;;;;;5014818;28;20030;-79
2021/08/08 09:25:55;;;;;;;2.45;1.10;;;19.10;90.00;;;;;;5013726;28;20029;-80
2021/08/08 09:28:28;;;;;;;2.58;1.10;;;19.10;89.70;;;;;;5014458;28;20073;-80
2021/08/08 09:30:54;;;;;;;4.25;1.38;;;19.20;88.60;;;;;;5013746;28;20034;-81
2021/08/08 09:33:20;;;;;;;1.52;1.15;;;19.20;88.50;;;;;;5013171;28;20052;-81
2021/08/08 09:35:49;;;;;;;6.45;1.15;;;19.20;87.30;;;;;;5014917;28;20464;-80
2021/08/08 09:38:15;;;;;;;3.22;1.13;;;19.20;87.30;;;;;;5012871;28;20100;-80
2021/08/08 09:40:42;;;;;;;6.18;1.30;;;19.20;86.70;;;;;;5013750;28;20487;-82
2021/08/08 09:43:10;;;;;;;3.65;1.10;;;19.20;86.70;;;;;;5013479;28;20054;-82
2021/08/08 09:45:42;;;;;;;4.00;1.65;;;19.30;87.70;;;;;;5013532;28;20025;-81
2021/08/08 09:48:11;;;;;;;4.35;1.33;;;19.30;86.50;;;;;;5013723;28;20037;-80
2021/08/08 09:50:41;;;;;;;3.20;1.20;;;19.40;88.20;;;;;;5013710;28;20072;-90
2021/08/08 09:53:15;;;;;;;3.70;1.60;;;19.40;86.20;;;;;;5013854;28;20037;-88
2021/08/08 09:55:41;;;;;;;3.90;1.27;;;19.50;85.50;;;;;;5015182;28;20049;-87
2021/08/08 09:58:17;;;;;;;2.90;1.13;;;19.60;85.50;;;;;;5014564;28;20456;-79
2021/08/08 10:00:43;;;;;;;5.97;1.40;;;19.60;85.30;;;;;;5013173;28;20029;-81
2021/08/08 10:03:12;;;;;;;4.43;1.17;;;19.70;84.20;;;;;;5013156;28;20030;-82
2021/08/08 10:05:39;;;;;;;7.00;1.27;;;19.70;82.10;;;;;;5013190;28;20037;-82
2021/08/08 10:08:11;;;;;;;4.13;1.65;;;19.70;84.30;;;;;;5013165;28;20029;-81
2021/08/08 10:10:38;;;;;;;6.07;1.50;;;19.70;81.80;;;;;;5013883;28;20022;-84
2021/08/08 10:13:38;;;;;;;4.85;1.50;;;19.80;81.90;;;;;;5012793;28;20022;-80
2021/08/08 10:16:09;;;;;;;2.22;1.17;;;19.80;79.60;;;;;;5012831;28;20029;-79
2021/08/08 10:18:40;;;;;;;1.80;0.85;;;19.90;80.60;;;;;;5013611;28;20033;-79
2021/08/08 10:21:08;;;;;;;4.13;1.27;;;19.90;79.00;;;;;;5012482;28;20123;-78
2021/08/08 10:23:35;;;;;;;4.63;1.20;;;20.00;78.60;;;;;;5013019;28;20028;-80
2021/08/08 10:26:01;;;;;;;7.88;1.20;;;20.00;79.10;;;;;;5011697;28;20131;-81
2021/08/08 10:28:27;;;;;;;5.38;1.48;;;20.00;77.40;;;;;;5013236;28;20038;-81
2021/08/08 10:30:53;;;;;;;6.07;1.42;;;19.90;77.40;;;;;;5026418;28;20026;-81
2021/08/08 10:33:19;;;;;;;3.53;1.90;;;19.90;78.30;;;;;;5025974;28;20037;-80
2021/08/08 10:35:48;;;;;;;5.60;1.10;;;19.80;77.40;;;;;;5000900;28;20387;-81
2021/08/08 10:38:15;;;;;;;6.30;1.40;;;19.80;77.90;;;;;;5019221;28;20072;-81
2021/08/08 10:40:43;;;;;;;3.88;1.35;;;19.90;77.10;;;;;;5026369;28;20398;-81
2021/08/08 10:43:21;;;;;;;3.70;1.20;;;19.90;78.20;;;;;;5012197;28;20018;-81
2021/08/08 10:45:47;;;;;;;2.80;1.13;;;19.80;76.50;;;;;;5012760;28;20026;-81
2021/08/08 10:48:14;;;;;;;2.33;1.10;;;19.80;76.70;;;;;;5013593;28;20036;-81
2021/08/08 10:50:44;;;;;;;3.83;1.13;;;19.80;76.90;;;;;;5012916;28;20033;-82
2021/08/08 10:53:24;;;;;;;4.13;1.15;;;19.80;77.40;;;;;;5012326;28;20034;-82
2021/08/08 10:56:02;;;;;;;4.50;0.98;;;19.70;77.90;;;;;;5013334;28;20030;-82
2021/08/08 10:58:33;;;;;;;2.08;0.90;;;19.80;78.60;;;;;;5013245;28;20025;-82
2021/08/08 11:00:59;;;;;;;3.30;1.00;;;19.90;79.10;;;;;;5013282;28;20041;-82
2021/08/08 11:03:24;;;;;;;2.53;0.90;;;19.90;77.90;;;;;;5012651;28;20029;-83
2021/08/08 11:05:50;;;;;;;2.40;1.13;;;20.10;78.70;;;;;;5013373;28;20126;-85
2021/08/08 11:08:21;;;;;;;1.35;0.80;;;20.20;78.30;;;;;;5012236;28;20479;-84
2021/08/08 11:10:48;;;;;;;1.98;1.00;;;20.40;78.70;;;;;;5005469;28;20026;-85
2021/08/08 11:13:26;;;;;;;3.03;0.90;;;20.40;78.10;;;;;;5011423;28;20054;-84
2021/08/08 11:15:53;;;;;;;5.70;1.40;;;20.40;77.90;;;;;;5009112;28;20030;-84
2021/08/08 11:18:29;;;;;;;4.18;1.45;;;20.40;78.00;;;;;;4996318;28;20038;-84
2021/08/08 11:20:55;;;;;;;1.67;0.88;;;20.40;77.80;;;;;;5013713;28;20467;-84
2021/08/08 11:23:29;;;;;;;3.75;1.20;;;20.50;77.30;;;;;;5012366;28;20468;-83
2021/08/08 11:25:55;;;;;;;4.47;1.25;;;20.60;77.00;;;;;;5012879;28;20394;-86
2021/08/08 11:28:21;;;;;;;2.97;1.30;;;20.70;76.60;;;;;;5012517;28;20103;-80
2021/08/08 11:30:46;;;;;;;3.97;1.02;;;20.70;76.70;;;;;;5012959;28;20463;-80
2021/08/08 11:33:14;;;;;;;3.90;0.90;;;20.60;76.10;;;;;;5012431;28;20471;-81
2021/08/08 11:35:42;;;;;;;2.42;0.98;;;20.40;76.30;;;;;;4993200;28;20038;-83
2021/08/08 11:38:16;;;;;;;6.38;1.63;;;20.00;78.80;;;;;;4970899;28;20050;-80
2021/08/08 11:40:44;;;;;;;2.30;1.00;;;19.60;80.30;;;;;;4972258;28;20041;-80
2021/08/08 11:43:11;;;;;;;2.88;0.90;;;19.40;80.30;;;;;;4972485;28;20596;-80
2021/08/08 11:45:44;;;;;;;2.40;0.80;;;19.30;80.80;;;;;;4972495;28;20023;-79
2021/08/08 11:48:12;;;;;;;2.33;1.27;;;19.30;80.40;;;;;;4972408;28;20052;-80
2021/08/08 11:50:38;;;;;;;1.85;0.70;;;19.20;82.60;;;;;;4972780;28;20038;-78
2021/08/08 11:53:06;;;;;;;1.95;0.82;;;19.10;82.80;;;;;;4972335;28;20173;-83
2021/08/08 11:55:34;;;;;;;4.13;0.80;;;19.20;83.30;;;;;;4975539;28;20046;-82
2021/08/08 11:58:08;;;;;;;2.10;0.73;;;19.20;81.90;;;;;;4991861;28;20415;-81
2021/08/08 12:00:36;;;;;;;2.25;0.82;;;19.20;82.50;;;;;;4991325;28;20027;-86
2021/08/08 12:03:04;;;;;;;3.00;1.17;;;19.30;82.30;;;;;;4975025;28;20464;-87
2021/08/08 12:05:31;;;;;;;3.03;0.73;;;19.50;83.10;;;;;;4991061;28;20034;-83
2021/08/08 12:07:58;;;;;;;1.20;0.80;;;19.60;80.90;;;;;;4975280;28;20113;-81
2021/08/08 12:10:29;;;;;;;4.45;1.02;;;19.70;80.10;;;;;;5012313;28;20052;-82
2021/08/08 12:12:55;;;;;;;2.28;0.60;;;19.90;80.90;;;;;;5012136;28;20056;-84
2021/08/08 12:15:37;;;;;;;1.95;0.95;;;20.10;78.70;;;;;;5011912;28;20390;-81
2021/08/08 12:18:04;;;;;;;2.22;0.70;;;20.10;79.20;;;;;;5011798;28;20022;-84
2021/08/08 12:20:37;;;;;;;2.25;0.93;;;20.20;79.20;;;;;;5012053;28;20422;-81
2021/08/08 12:23:05;;;;;;;1.77;0.75;;;20.40;79.20;;;;;;5011345;28;20024;-82
2021/08/08 12:25:31;;;;;;;2.95;0.85;;;20.40;76.10;;;;;;5011886;28;20041;-88
2021/08/08 12:27:57;;;;;;;2.78;0.82;;;20.50;74.80;;;;;;5028540;28;20026;-87
2021/08/08 12:30:27;;;;;;;1.88;0.80;;;20.60;74.90;;;;;;5011674;28;20113;-86
2021/08/08 12:33:02;;;;;;;2.88;0.82;;;20.60;74.50;;;;;;5012350;28;20022;-87
2021/08/08 12:35:34;;;;;;;2.60;0.85;;;20.70;75.20;;;;;;5011717;28;20034;-87
2021/08/08 12:38:08;;;;;;;2.20;0.70;;;20.90;75.90;;;;;;5010200;28;20502;-86
2021/08/08 12:40:46;;;;;;;2.45;0.80;;;21.10;74.10;;;;;;5012152;28;20033;-85
2021/08/08 12:43:20;;;;;;;3.22;1.17;;;21.20;74.20;;;;;;5011793;28;20060;-84
2021/08/08 12:45:48;;;;;;;3.28;0.80;;;21.40;73.60;;;;;;5010377;28;20030;-89
2021/08/08 12:48:14;;;;;;;3.30;1.60;;;21.60;72.00;;;;;;5002849;28;20038;-87